Time;durP1;ratioP1;P1;durP2;ratioP2;P2;SDS_P1;SDS_P2;PMS_P1;PMS_P2;Temp;Humidity;BMP_temperature;BMP_pressure;BME280_temperature;BME280_humidity;BME280_pressure;Samples;Min_cycle;Max_cycle;Signal;HPM_P1;HPM_P2
2022/06/14 00:00:56;;;;;;;3.80;2.60;;;;;;;21.21;51.69;98868.23;103604;1276;22818;-55
2022/06/14 00:03:31;;;;;;;4.70;3.10;;;;;;;21.16;51.74;98868.37;103504;1277;138584;-55
2022/06/14 00:06:09;;;;;;;3.00;2.70;;;;;;;21.11;51.73;98867.63;103776;1277;27200;-55
2022/06/14 00:08:36;;;;;;;3.60;2.50;;;;;;;21.07;51.95;98866.92;103909;1273;137272;-55
2022/06/14 00:11:12;;;;;;;4.00;2.60;;;;;;;21.01;52.35;98863.26;103991;1273;27198;-55
2022/06/14 00:13:39;;;;;;;4.80;3.10;;;;;;;20.95;52.59;98863.52;103812;1274;22564;-55
2022/06/14 00:16:07;;;;;;;5.10;3.20;;;;;;;20.90;52.42;98860.58;107172;1273;24020;-55
2022/06/14 00:18:34;;;;;;;4.70;3.00;;;;;;;20.85;52.39;98859.84;107167;1274;22459;-55
2022/06/14 00:21:01;;;;;;;3.60;3.00;;;;;;;20.80;52.32;98856.96;107154;1273;139984;-55
2022/06/14 00:23:28;;;;;;;5.80;3.10;;;;;;;20.80;52.23;98854.29;107200;1273;23928;-54
2022/06/14 00:25:56;;;;;;;3.40;2.70;;;;;;;20.81;52.02;98851.38;107089;1273;139741;-54
2022/06/14 00:28:24;;;;;;;4.40;3.00;;;;;;;20.82;51.97;98851.50;107258;1273;24795;-54
2022/06/14 00:30:56;;;;;;;5.80;3.60;;;;;;;20.82;51.80;98850.77;107263;1273;23260;-55
2022/06/14 00:33:23;;;;;;;4.40;3.40;;;;;;;20.84;51.87;98846.73;107017;1273;139873;-54
2022/06/14 00:36:01;;;;;;;4.70;2.50;;;;;;;20.85;51.91;98847.89;106432;1273;22686;-54
2022/06/14 00:38:28;;;;;;;3.70;2.90;;;;;;;20.85;52.24;98843.39;103592;1274;138508;-54
2022/06/14 00:40:57;;;;;;;3.50;2.80;;;;;;;20.86;52.33;98848.14;103872;1273;25194;-54
2022/06/14 00:43:24;;;;;;;7.20;3.00;;;;;;;20.81;52.31;98840.02;103863;1273;22640;-55
2022/06/14 00:45:51;;;;;;;3.30;2.50;;;;;;;20.79;52.36;98837.00;103759;1273;138461;-54
2022/06/14 00:48:22;;;;;;;3.60;3.20;;;;;;;20.79;52.22;98837.87;103887;1274;22621;-54
2022/06/14 00:50:58;;;;;;;7.10;2.80;;;;;;;20.79;52.33;98839.44;103790;1273;139106;-54
2022/06/14 00:53:52;;;;;;;6.30;2.80;;;;;;;20.79;52.59;98836.27;103926;1273;25565;-53
2022/06/14 00:56:21;;;;;;;3.80;2.80;;;;;;;20.76;52.99;98831.50;103787;1273;137746;-54
2022/06/14 00:58:53;;;;;;;3.50;2.80;;;;;;;20.71;53.17;98830.41;103849;1273;22712;-54
2022/06/14 01:01:22;;;;;;;3.50;2.70;;;;;;;20.65;53.64;98832.62;103855;1273;22669;-54
2022/06/14 01:04:02;;;;;;;4.00;2.70;;;;;;;20.57;54.32;98828.86;103734;1273;137949;-54
2022/06/14 01:06:56;;;;;;;4.20;2.80;;;;;;;20.46;54.80;98829.42;104005;1273;22566;-54
2022/06/14 01:09:25;;;;;;;4.90;2.90;;;;;;;20.32;55.39;98836.33;103888;1274;140177;-55
2022/06/14 01:12:03;;;;;;;4.60;3.10;;;;;;;20.17;55.84;98832.67;103794;1273;22573;-54
2022/06/14 01:14:47;;;;;;;5.90;3.10;;;;;;;20.00;56.39;98831.88;103780;1273;137437;-54
2022/06/14 01:17:14;;;;;;;3.50;2.80;;;;;;;19.87;56.96;98830.92;103829;1273;23864;-55
2022/06/14 01:19:41;;;;;;;6.20;3.50;;;;;;;19.76;57.14;98833.15;103804;1273;137761;-55
2022/06/14 01:22:08;;;;;;;3.30;2.80;;;;;;;19.66;57.36;98826.96;103914;1274;25311;-56
2022/06/14 01:24:36;;;;;;;4.50;3.00;;;;;;;19.56;57.11;98825.79;103895;1276;24026;-54
2022/06/14 01:27:08;;;;;;;4.20;2.90;;;;;;;19.52;56.98;98828.99;103785;1274;138510;-55
2022/06/14 01:29:36;;;;;;;5.60;3.20;;;;;;;19.48;56.62;98826.64;103893;1273;26479;-54
2022/06/14 01:32:05;;;;;;;6.80;3.30;;;;;;;19.48;56.38;98823.19;103730;1273;139753;-54
2022/06/14 01:34:32;;;;;;;3.50;2.90;;;;;;;19.52;56.43;98830.75;103613;1276;22594;-54
2022/06/14 01:37:03;;;;;;;4.10;3.10;;;;;;;19.53;56.66;98821.45;104043;1274;26336;-54
2022/06/14 01:39:30;;;;;;;3.80;3.10;;;;;;;19.55;57.35;98826.39;103933;1275;138759;-54
2022/06/14 01:42:13;;;;;;;3.50;2.90;;;;;;;19.51;57.36;98822.20;103942;1274;22585;-54
2022/06/14 01:44:55;;;;;;;4.20;2.90;;;;;;;19.50;57.32;98818.95;103844;1276;138952;-54
2022/06/14 01:47:54;;;;;;;3.70;2.80;;;;;;;19.47;57.27;98822.38;103849;1276;26968;-54
2022/06/14 01:53:45;;;;;;;6.00;3.10;;;;;;;19.42;56.85;98816.90;103415;1280;28302;-54
2022/06/14 01:56:20;;;;;;;3.90;3.00;;;;;;;19.40;56.74;98812.48;103234;1281;137852;-54
2022/06/14 01:59:17;;;;;;;4.70;2.90;;;;;;;19.42;56.38;98811.33;103408;1280;23163;-54
2022/06/14 02:01:51;;;;;;;3.90;2.80;;;;;;;19.42;56.23;98809.50;102709;1287;140996;-54
2022/06/14 02:04:37;;;;;;;4.90;2.80;;;;;;;19.47;56.09;98809.05;102813;1288;22572;-54
2022/06/14 02:07:06;;;;;;;3.90;2.60;;;;;;;19.48;56.31;98806.96;102938;1287;27291;-53
2022/06/14 02:09:50;;;;;;;5.80;3.20;;;;;;;19.52;56.48;98810.95;102780;1287;137487;-54
2022/06/14 02:12:20;;;;;;;2.80;2.40;;;;;;;19.51;56.19;98803.02;102838;1287;22615;-54
2022/06/14 02:15:03;;;;;;;4.20;2.70;;;;;;;19.55;56.26;98810.81;102726;1287;138173;-54
2022/06/14 02:17:43;;;;;;;4.70;3.10;;;;;;;19.55;56.25;98811.20;102696;1288;24586;-54
2022/06/14 02:20:14;;;;;;;3.60;2.60;;;;;;;19.56;56.40;98815.06;102704;1287;139034;-54
2022/06/14 02:22:47;;;;;;;5.30;2.80;;;;;;;19.55;56.47;98808.08;106187;1287;22435;-54
2022/06/14 02:25:29;;;;;;;7.70;3.00;;;;;;;19.56;56.58;98810.45;106172;1287;22583;-54
2022/06/14 02:28:03;;;;;;;8.60;3.30;;;;;;;19.52;56.82;98810.79;106236;1280;141778;-55
2022/06/14 02:30:34;;;;;;;7.60;2.90;;;;;;;19.47;57.19;98810.86;106542;1282;22430;-54
2022/06/14 02:33:15;;;;;;;4.10;3.10;;;;;;;19.47;57.53;98812.77;106594;1281;138500;-54
2022/06/14 02:35:57;;;;;;;4.80;2.90;;;;;;;19.40;57.99;98807.61;105845;1282;24990;-53
2022/06/14 02:38:32;;;;;;;5.80;2.90;;;;;;;19.34;58.38;98808.39;103393;1274;140432;-52
2022/06/14 02:41:19;;;;;;;6.60;3.60;;;;;;;19.28;58.87;98806.97;103714;1274;24131;-52
2022/06/14 02:44:07;;;;;;;4.70;2.90;;;;;;;19.23;59.06;98808.21;107136;1274;139860;-52
2022/06/14 02:46:42;;;;;;;5.00;3.60;;;;;;;19.17;59.28;98806.80;107239;1274;23250;-52
2022/06/14 02:49:34;;;;;;;8.20;3.20;;;;;;;19.16;59.73;98811.02;107206;1274;22394;-53
2022/06/14 02:52:07;;;;;;;9.50;3.30;;;;;;;19.11;60.11;98803.66;107098;1274;137682;-53
2022/06/14 02:54:39;;;;;;;6.60;3.40;;;;;;;19.12;60.64;98802.20;107187;1272;22379;-53
2022/06/14 02:57:11;;;;;;;5.10;3.30;;;;;;;19.11;60.83;98796.32;107287;1274;139929;-53
2022/06/14 02:59:39;;;;;;;3.90;2.70;;;;;;;19.12;60.58;98792.71;107277;1274;23930;-53
2022/06/14 03:02:11;;;;;;;3.60;3.10;;;;;;;19.11;60.45;98785.02;107155;1274;138144;-53
2022/06/14 03:04:44;;;;;;;3.60;2.70;;;;;;;19.13;60.37;98780.85;107236;1274;23305;-53
2022/06/14 03:07:12;;;;;;;4.10;3.30;;;;;;;19.17;60.36;98778.83;107279;1274;22923;-53
2022/06/14 03:09:40;;;;;;;4.10;3.40;;;;;;;19.18;60.42;98773.48;107045;1275;137650;-53
2022/06/14 03:12:59;;;;;;;5.00;3.00;;;;;;;19.23;60.16;98777.16;107154;1275;22422;-52
2022/06/14 03:15:44;;;;;;;9.00;3.90;;;;;;;19.31;60.31;98780.95;106617;1281;137664;-53
2022/06/14 03:18:41;;;;;;;5.10;3.00;;;;;;;19.37;59.99;98779.13;106607;1282;22628;-53
2022/06/14 03:21:18;;;;;;;5.00;3.30;;;;;;;19.41;59.54;98777.91;106648;1281;138442;-53
2022/06/14 03:24:04;;;;;;;3.50;3.10;;;;;;;19.51;59.48;98780.72;106709;1282;23057;-53
2022/06/14 03:27:06;;;;;;;5.00;3.50;;;;;;;19.60;59.56;98786.15;106469;1282;139010;-53
2022/06/14 03:29:53;;;;;;;5.90;3.40;;;;;;;19.68;59.08;98798.23;106612;1281;22503;-52
2022/06/14 03:32:23;;;;;;;23.00;5.50;;;;;;;19.75;58.89;98822.05;106489;1281;139517;-53
2022/06/14 03:34:53;;;;;;;6.60;3.50;;;;;;;19.81;58.49;98826.05;106679;1281;22406;-53
2022/06/14 03:37:20;;;;;;;6.50;4.10;;;;;;;19.91;58.12;98840.13;106526;1283;22579;-53
2022/06/14 03:39:56;;;;;;;9.90;4.00;;;;;;;19.97;58.17;98844.45;106561;1281;138071;-53
2022/06/14 03:42:23;;;;;;;7.20;4.00;;;;;;;20.02;58.03;98845.36;106479;1281;22590;-53
2022/06/14 03:44:50;;;;;;;33.70;6.70;;;;;;;20.07;57.90;98849.08;106545;1281;138434;-52
2022/06/14 03:47:20;;;;;;;13.00;4.80;;;;;;;20.09;57.91;98844.38;103767;1281;26161;-53
2022/06/14 03:49:54;;;;;;;6.20;4.70;;;;;;;20.12;57.72;98843.16;103026;1282;139279;-52
2022/06/14 03:52:45;;;;;;;9.40;4.80;;;;;;;20.13;57.78;98842.70;103428;1273;25635;-52
2022/06/14 03:55:27;;;;;;;11.40;5.80;;;;;;;20.11;58.06;98840.27;103932;1273;22548;-51
2022/06/14 03:58:27;;;;;;;7.80;5.40;;;;;;;20.13;58.06;98844.29;103718;1274;138647;-52
2022/06/14 04:01:02;;;;;;;14.30;5.40;;;;;;;20.12;58.27;98855.78;103411;1280;23382;-53
2022/06/14 04:03:39;;;;;;;8.50;5.50;;;;;;;20.11;57.83;98862.02;103280;1280;138284;-52
2022/06/14 04:06:18;;;;;;;8.30;5.30;;;;;;;20.07;58.00;98863.55;103417;1280;22679;-53
2022/06/14 04:08:56;;;;;;;8.10;5.70;;;;;;;20.05;58.41;98876.85;103238;1281;138784;-53
2022/06/14 04:12:10;;;;;;;12.60;6.70;;;;;;;20.05;58.50;98888.40;103421;1280;26707;-53
2022/06/14 04:14:54;;;;;;;10.20;6.40;;;;;;;20.05;58.50;98893.45;102750;1287;138907;-53
2022/06/14 04:17:43;;;;;;;15.90;7.70;;;;;;;20.00;58.49;98906.45;102923;1287;22796;-53
2022/06/14 04:20:11;;;;;;;15.50;7.30;;;;;;;19.97;58.87;98923.86;102801;1287;139025;-53
2022/06/14 04:23:01;;;;;;;10.60;6.60;;;;;;;19.88;58.93;98923.98;102957;1287;24974;-52
2022/06/14 04:25:35;;;;;;;26.30;7.70;;;;;;;19.76;59.08;98928.23;102830;1288;26427;-55
2022/06/14 04:28:29;;;;;;;15.60;6.70;;;;;;;19.64;59.48;98933.98;102735;1288;139258;-53
2022/06/14 04:31:01;;;;;;;17.00;6.30;;;;;;;19.43;60.05;98935.92;102849;1288;24572;-54
2022/06/14 04:33:42;;;;;;;21.60;6.50;;;;;;;19.27;60.82;98942.28;102669;1289;139915;-53
2022/06/14 04:36:22;;;;;;;14.00;6.00;;;;;;;19.15;61.44;98957.66;102848;1281;22598;-53
2022/06/14 04:39:07;;;;;;;18.60;5.50;;;;;;;19.10;62.20;98962.10;103182;1281;138166;-52
2022/06/14 04:41:42;;;;;;;12.40;5.30;;;;;;;19.06;62.72;98970.46;103380;1282;24353;-52
2022/06/14 04:44:19;;;;;;;29.50;5.50;;;;;;;19.02;63.01;98974.21;103294;1280;139823;-52
2022/06/14 04:47:03;;;;;;;;;;;;;;;18.98;63.43;98980.98;103497;1282;22611;-52
2022/06/14 04:49:56;;;;;;;10.80;4.90;;;;;;;18.91;63.69;98985.48;103261;1281;24301;-51
2022/06/14 04:52:27;;;;;;;9.60;4.00;;;;;;;18.84;64.05;98990.30;103681;1275;25249;-52
2022/06/14 04:55:04;;;;;;;14.50;3.90;;;;;;;18.76;64.56;98998.94;103786;1274;22910;-54
2022/06/14 04:57:32;;;;;;;;;;;;;;;18.60;65.02;98989.05;103697;1274;139795;-53
2022/06/14 05:00:08;;;;;;;14.40;3.80;;;;;;;18.39;65.67;98990.30;103695;1275;24944;-56
2022/06/14 05:02:47;;;;;;;8.70;3.80;;;;;;;18.25;66.19;99001.53;106772;1278;140899;-52
2022/06/14 05:05:19;;;;;;;8.90;3.30;;;;;;;18.13;66.41;99007.80;106855;1277;22511;-52
2022/06/14 05:07:49;;;;;;;5.80;2.80;;;;;;;18.02;66.80;99009.64;106925;1277;141003;-52
2022/06/14 05:10:22;;;;;;;13.30;3.50;;;;;;;17.92;67.25;99014.58;107011;1277;23885;-53
2022/06/14 05:12:54;;;;;;;9.40;3.20;;;;;;;17.86;67.53;99030.19;106901;1277;22605;-53
2022/06/14 05:15:29;;;;;;;9.20;2.80;;;;;;;17.83;67.75;99028.88;106856;1280;138264;-53
2022/06/14 05:18:01;;;;;;;7.50;3.00;;;;;;;17.82;67.94;99034.48;107020;1277;22525;-51
2022/06/14 05:20:36;;;;;;;10.60;2.60;;;;;;;17.79;68.04;99032.91;106793;1277;140722;-53
2022/06/14 05:23:24;;;;;;;17.80;3.00;;;;;;;17.71;68.12;99029.98;107111;1277;22482;-54
2022/06/14 05:25:58;;;;;;;17.10;3.00;;;;;;;17.71;68.17;99038.10;107055;1277;142539;-55
2022/06/14 05:28:42;;;;;;;14.30;3.30;;;;;;;17.70;68.04;99046.61;107108;1277;22816;-54
2022/06/14 05:31:21;;;;;;;6.60;2.70;;;;;;;17.66;68.28;99050.50;106900;1277;24150;-54
2022/06/14 05:33:59;;;;;;;4.20;2.60;;;;;;;17.61;68.55;99051.10;106839;1277;138283;-54
2022/06/14 05:36:29;;;;;;;11.30;2.70;;;;;;;17.53;68.89;99055.27;106883;1277;22453;-54
2022/06/14 05:39:04;;;;;;;5.00;2.00;;;;;;;17.51;69.31;99056.64;106869;1277;139080;-54
2022/06/14 05:41:33;;;;;;;9.40;2.60;;;;;;;17.50;69.44;99059.69;107352;1274;22473;-54
2022/06/14 05:44:23;;;;;;;7.40;2.50;;;;;;;17.54;69.45;99055.51;107170;1273;141356;-56
2022/06/14 05:46:54;;;;;;;10.90;2.40;;;;;;;17.60;69.50;99057.36;107208;1273;22511;-56
2022/06/14 05:49:26;;;;;;;7.10;2.40;;;;;;;17.65;69.25;99058.44;107228;1273;22412;-55
2022/06/14 05:52:28;;;;;;;7.20;2.30;;;;;;;17.68;69.13;99067.80;107132;1276;138998;-55
2022/06/14 05:55:10;;;;;;;5.30;1.90;;;;;;;17.73;68.93;99084.76;107176;1273;22411;-55
2022/06/14 05:57:39;;;;;;;13.90;2.00;;;;;;;17.82;68.42;99100.49;107104;1275;138598;-55
2022/06/14 06:00:30;;;;;;;3.90;1.70;;;;;;;17.90;68.15;99101.92;107209;1273;22416;-55
2022/06/14 06:03:05;;;;;;;6.40;1.90;;;;;;;17.94;67.73;99098.31;107137;1273;139450;-55
2022/06/14 06:05:36;;;;;;;7.90;1.80;;;;;;;17.94;67.89;99107.07;107357;1275;24442;-55
2022/06/14 06:08:11;;;;;;;6.10;1.60;;;;;;;17.92;67.46;99108.05;107180;1273;141034;-55
2022/06/14 06:10:40;;;;;;;9.70;3.30;;;;;;;17.93;67.16;99111.72;107322;1273;23585;-55
2022/06/14 06:13:18;;;;;;;14.00;2.50;;;;;;;17.87;67.10;99106.10;107133;1274;22519;-55
2022/06/14 06:15:54;;;;;;;10.10;2.20;;;;;;;17.79;67.53;99107.86;107111;1274;138797;-55
2022/06/14 06:18:29;;;;;;;7.60;2.00;;;;;;;17.72;68.15;99116.31;107372;1273;24187;-55
2022/06/14 06:21:19;;;;;;;7.00;1.90;;;;;;;17.66;69.07;99119.32;107158;1274;138846;-54
2022/06/14 06:23:50;;;;;;;5.90;2.00;;;;;;;17.58;70.16;99135.48;107210;1274;22405;-54
2022/06/14 06:26:18;;;;;;;2.80;2.50;;;;;;;17.50;70.67;99138.27;105597;1273;138999;-54
2022/06/14 06:28:49;;;;;;;2.20;1.80;;;;;;;17.41;70.80;99139.77;103870;1276;25343;-54
2022/06/14 06:31:33;;;;;;;8.70;2.20;;;;;;;17.27;71.09;99134.40;103848;1277;24630;-54
2022/06/14 06:34:01;;;;;;;8.30;1.40;;;;;;;17.08;71.98;99144.49;107216;1274;138235;-54
2022/06/14 06:36:52;;;;;;;6.10;1.60;;;;;;;16.83;72.94;99147.52;107261;1275;23532;-54
2022/06/14 06:39:38;;;;;;;3.10;1.70;;;;;;;16.56;73.90;99175.39;107221;1273;140481;-54
2022/06/14 06:42:32;;;;;;;5.40;1.90;;;;;;;16.38;74.55;99195.88;107377;1274;22444;-54
2022/06/14 06:45:15;;;;;;;;;;;;;;;16.36;75.44;99204.21;107127;1275;138822;-55
2022/06/14 06:47:46;;;;;;;2.90;1.90;;;;;;;16.35;75.77;99190.82;107348;1274;22420;-55
2022/06/14 06:50:15;;;;;;;3.30;1.70;;;;;;;16.35;76.01;99194.23;107156;1274;140058;-56
2022/06/14 06:53:07;;;;;;;2.90;2.20;;;;;;;16.29;76.32;99195.59;107220;1275;23380;-55
2022/06/14 06:55:47;;;;;;;3.30;2.00;;;;;;;16.25;76.68;99190.95;107232;1274;23388;-55
2022/06/14 06:58:38;;;;;;;4.80;2.20;;;;;;;16.15;77.16;99195.70;107175;1275;23230;-55
2022/06/14 07:01:07;;;;;;;3.10;2.20;;;;;;;16.14;77.70;99200.63;107013;1274;22394;-55
2022/06/14 07:03:51;;;;;;;6.30;3.20;;;;;;;16.13;78.02;99189.70;107067;1275;139587;-55
2022/06/14 07:06:29;;;;;;;4.40;1.90;;;;;;;16.14;78.51;99185.44;107222;1274;22405;-55
2022/06/14 07:09:02;;;;;;;8.90;2.50;;;;;;;16.17;78.57;99191.09;106997;1274;140574;-55
2022/06/14 07:11:57;;;;;;;8.30;2.50;;;;;;;16.17;78.84;99205.83;107412;1274;22431;-54
2022/06/14 07:14:27;;;;;;;9.30;3.30;;;;;;;16.18;79.31;99227.41;107212;1274;140224;-55
2022/06/14 07:17:11;;;;;;;8.50;2.80;;;;;;;16.20;78.81;99234.36;107307;1274;22492;-55
2022/06/14 07:19:44;;;;;;;3.70;2.60;;;;;;;16.19;78.43;99228.66;107250;1274;22746;-55
2022/06/14 07:22:34;;;;;;;4.20;2.20;;;;;;;16.26;79.54;99227.61;106986;1274;529475;-55
2022/06/14 07:26:23;;;;;;;9.50;2.50;;;;;;;16.51;79.63;99224.34;101099;1310;545466;-55
2022/06/14 07:29:03;;;;;;;3.00;2.20;;;;;;;16.68;78.56;99221.83;106143;1289;22444;-55
2022/06/14 07:31:48;;;;;;;5.20;2.30;;;;;;;16.78;75.45;99226.15;105908;1290;25381;-55
2022/06/14 07:34:16;;;;;;;3.10;2.30;;;;;;;16.85;75.08;99240.14;106087;1289;22420;-55
2022/06/14 07:36:58;;;;;;;7.60;2.30;;;;;;;16.86;74.01;99243.83;106067;1290;22504;-55
2022/06/14 07:39:47;;;;;;;3.60;2.40;;;;;;;16.82;73.70;99247.87;105719;1286;349742;-55
2022/06/14 07:42:19;;;;;;;3.20;2.30;;;;;;;16.76;73.41;99248.69;106426;1286;22416;-55
2022/06/14 07:44:50;;;;;;;3.50;2.30;;;;;;;16.67;73.32;99247.48;106282;1286;139720;-55
2022/06/14 07:47:19;;;;;;;2.90;2.00;;;;;;;16.65;73.65;99246.71;106178;1286;22603;-55
2022/06/14 07:49:49;;;;;;;3.40;1.70;;;;;;;16.65;72.80;99250.02;106203;1286;138941;-55
2022/06/14 07:52:42;;;;;;;2.30;1.50;;;;;;;16.66;71.30;99243.00;106346;1286;22416;-55
2022/06/14 07:55:15;;;;;;;2.40;1.40;;;;;;;16.75;71.06;99244.24;106464;1286;23051;-55
2022/06/14 07:57:44;;;;;;;2.20;1.10;;;;;;;16.82;70.23;99245.11;106418;1286;139302;-55
2022/06/14 08:03:11;;;;;;;1.70;1.30;;;;;;;16.98;68.90;99260.36;106181;1286;138900;-55
2022/06/14 08:05:41;;;;;;;2.30;1.10;;;;;;;17.04;66.95;99256.70;107252;1274;23763;-55
2022/06/14 08:08:09;;;;;;;1.80;1.00;;;;;;;17.10;66.96;99262.25;107242;1275;137703;-55
2022/06/14 08:10:42;;;;;;;1.30;1.00;;;;;;;17.19;66.31;99256.05;107345;1277;24912;-55
2022/06/14 08:13:10;;;;;;;2.90;1.30;;;;;;;17.30;66.15;99258.77;107475;1274;22606;-55
2022/06/14 08:15:39;;;;;;;2.30;1.10;;;;;;;17.39;66.17;99260.04;107392;1273;139166;-53
2022/06/14 08:18:08;;;;;;;4.50;1.10;;;;;;;17.55;65.21;99260.39;107272;1274;25459;-55
2022/06/14 08:20:37;;;;;;;2.30;1.30;;;;;;;17.71;64.17;99261.12;107295;1274;140359;-55
2022/06/14 08:23:06;;;;;;;1.20;1.10;;;;;;;17.84;62.65;99260.85;107347;1274;22404;-56
2022/06/14 08:25:35;;;;;;;1.10;1.00;;;;;;;17.96;62.29;99271.41;107346;1274;22559;-55
2022/06/14 08:28:12;;;;;;;6.00;1.20;;;;;;;18.03;61.56;99269.24;107216;1275;136756;-55
2022/06/14 08:30:45;;;;;;;2.10;0.90;;;;;;;18.12;59.72;99273.40;107186;1275;22459;-55
2022/06/14 08:33:48;;;;;;;4.10;1.00;;;;;;;18.09;59.79;99267.83;107216;1274;138393;-55
2022/06/14 08:36:19;;;;;;;3.50;1.20;;;;;;;18.14;60.25;99280.75;106779;1281;22996;-55
2022/06/14 08:38:51;;;;;;;1.50;1.30;;;;;;;18.14;60.08;99281.39;106443;1283;138496;-56
2022/06/14 08:41:39;;;;;;;2.50;1.40;;;;;;;18.21;61.25;99298.25;106812;1281;22507;-55
2022/06/14 08:44:19;;;;;;;4.80;1.80;;;;;;;18.26;60.21;99300.63;106584;1281;139265;-56
2022/06/14 08:47:03;;;;;;;3.90;2.10;;;;;;;18.14;59.75;99299.92;106799;1281;25796;-55
2022/06/14 08:49:39;;;;;;;3.80;2.10;;;;;;;18.09;61.29;99292.99;106699;1281;25223;-55
2022/06/14 08:52:42;;;;;;;4.10;1.90;;;;;;;18.10;61.25;99293.58;106748;1280;138222;-55
2022/06/14 08:55:24;;;;;;;4.20;1.60;;;;;;;18.16;60.36;99298.61;106861;1281;22462;-56
2022/06/14 08:58:09;;;;;;;2.40;1.40;;;;;;;18.19;59.08;99293.46;106669;1281;138178;-55
2022/06/14 09:00:59;;;;;;;5.10;1.40;;;;;;;18.21;58.21;99300.58;106839;1281;22503;-55
2022/06/14 09:03:31;;;;;;;2.20;1.70;;;;;;;18.22;58.33;99299.30;106704;1281;137440;-55
2022/06/14 09:06:05;;;;;;;2.40;1.40;;;;;;;18.24;57.98;99299.52;106866;1281;24678;-55
2022/06/14 09:08:32;;;;;;;1.60;1.30;;;;;;;18.26;57.61;99301.66;106678;1281;138462;-55
2022/06/14 09:11:14;;;;;;;4.00;1.90;;;;;;;18.24;57.66;99300.05;106801;1281;22515;-56
2022/06/14 09:14:09;;;;;;;4.70;1.70;;;;;;;18.18;58.78;99297.45;107236;1275;138785;-57
2022/06/14 09:17:02;;;;;;;2.90;1.60;;;;;;;18.15;58.98;99303.67;107375;1274;22395;-55
2022/06/14 09:20:00;;;;;;;3.40;1.40;;;;;;;18.17;58.36;99303.16;107102;1276;138527;-55
2022/06/14 09:22:50;;;;;;;2.50;1.80;;;;;;;18.22;59.21;99302.05;107189;1274;22515;-55
2022/06/14 09:26:11;;;;;;;6.00;2.50;;;;;;;18.33;58.71;99316.28;107276;1274;23739;-55
2022/06/14 09:29:21;;;;;;;6.20;2.00;;;;;;;18.31;58.41;99315.38;107210;1274;24040;-55
2022/06/14 09:32:12;;;;;;;6.90;2.20;;;;;;;18.23;58.96;99318.84;107239;1275;138407;-55
2022/06/14 09:35:09;;;;;;;2.70;1.70;;;;;;;18.22;59.06;99317.10;107238;1275;22484;-54
2022/06/14 09:38:07;;;;;;;3.20;1.50;;;;;;;18.26;59.08;99315.74;106593;1283;22460;-52
2022/06/14 09:40:43;;;;;;;8.10;1.30;;;;;;;18.32;59.04;99310.56;106680;1282;22385;-52
2022/06/14 09:43:23;;;;;;;4.20;1.40;;;;;;;18.51;58.55;99320.94;106635;1283;23425;-53
2022/06/14 09:46:23;;;;;;;2.70;2.00;;;;;;;18.60;56.60;99321.52;106415;1282;138870;-53
2022/06/14 09:49:04;;;;;;;6.80;1.80;;;;;;;18.63;56.36;99315.20;106698;1282;22942;-53
2022/06/14 09:52:00;;;;;;;3.50;1.30;;;;;;;18.70;56.38;99318.45;106513;1282;138294;-53
2022/06/14 09:54:44;;;;;;;3.00;1.60;;;;;;;18.77;55.83;99322.73;106179;1287;22550;-54
2022/06/14 09:57:18;;;;;;;9.30;1.80;;;;;;;18.79;54.66;99320.35;106027;1288;137888;-54
2022/06/14 10:00:07;;;;;;;3.40;1.70;;;;;;;18.76;54.75;99322.38;106202;1287;24664;-54
2022/06/14 10:02:39;;;;;;;2.50;1.60;;;;;;;18.73;55.56;99321.47;106009;1287;137735;-54
2022/06/14 10:05:14;;;;;;;8.60;2.00;;;;;;;18.77;55.25;99316.54;106160;1287;23807;-54
2022/06/14 10:08:01;;;;;;;7.40;1.60;;;;;;;18.89;54.90;99326.92;106181;1287;22445;-54
2022/06/14 10:11:10;;;;;;;4.10;1.90;;;;;;;18.94;53.55;99328.35;106092;1288;23296;-53
2022/06/14 10:13:49;;;;;;;4.60;1.70;;;;;;;18.90;53.98;99326.35;106000;1287;22519;-53
2022/06/14 10:16:42;;;;;;;4.50;1.90;;;;;;;18.89;54.13;99325.57;106774;1281;22387;-52
2022/06/14 10:19:19;;;;;;;2.90;1.80;;;;;;;18.91;53.37;99333.55;106109;1287;22463;-53
2022/06/14 10:21:48;;;;;;;3.30;1.90;;;;;;;18.85;52.97;99319.31;105869;1287;138492;-53
2022/06/14 10:24:28;;;;;;;2.40;1.60;;;;;;;18.85;53.76;99327.98;106002;1287;22658;-53
2022/06/14 10:30:34;;;;;;;2.30;1.30;;;;;;;18.86;54.37;99331.17;106041;1288;22579;-53
2022/06/14 10:33:28;;;;;;;3.10;2.20;;;;;;;18.88;54.52;99326.02;106625;1283;138322;-53
2022/06/14 10:36:18;;;;;;;3.00;1.50;;;;;;;18.97;54.18;99323.72;106646;1282;22607;-53
2022/06/14 10:39:00;;;;;;;3.80;1.70;;;;;;;19.08;52.54;99317.01;106520;1282;137941;-53
2022/06/14 10:41:42;;;;;;;7.00;1.70;;;;;;;19.19;51.57;99309.64;106640;1282;22519;-53
2022/06/14 10:44:18;;;;;;;2.30;1.50;;;;;;;19.32;51.57;99309.81;106493;1282;138970;-53
2022/06/14 10:47:08;;;;;;;4.60;2.20;;;;;;;19.44;51.89;99306.69;104564;1283;22633;-53
2022/06/14 10:49:41;;;;;;;2.90;1.50;;;;;;;19.59;51.44;99303.89;103350;1283;22573;-53
2022/06/14 10:52:26;;;;;;;5.00;1.60;;;;;;;19.76;51.74;99292.26;103361;1281;24279;-53
2022/06/14 10:55:02;;;;;;;6.10;1.80;;;;;;;19.91;51.14;99287.42;103174;1284;22681;-53
2022/06/14 10:57:59;;;;;;;2.80;1.80;;;;;;;20.01;50.31;99294.40;103647;1277;138281;-53
2022/06/14 11:00:48;;;;;;;1.90;1.70;;;;;;;20.05;49.49;99285.40;103811;1277;23947;-53
2022/06/14 11:03:22;;;;;;;2.80;1.80;;;;;;;20.05;50.56;99283.31;103652;1277;138582;-53
2022/06/14 11:05:56;;;;;;;3.50;1.80;;;;;;;20.12;50.46;99285.85;103729;1277;22607;-53
2022/06/14 11:08:44;;;;;;;2.20;1.70;;;;;;;20.16;48.77;99284.55;103790;1275;137647;-53
2022/06/14 11:11:17;;;;;;;3.60;1.60;;;;;;;20.12;48.81;99282.15;103811;1276;22676;-53
2022/06/14 11:14:07;;;;;;;4.70;1.70;;;;;;;20.06;48.94;99282.11;103789;1277;137499;-53
2022/06/14 11:16:45;;;;;;;3.60;1.60;;;;;;;20.03;49.27;99286.02;103705;1276;25550;-53
2022/06/14 11:19:31;;;;;;;2.40;1.80;;;;;;;20.04;49.35;99284.86;103810;1276;22602;-53
2022/06/14 11:22:07;;;;;;;5.60;1.70;;;;;;;20.03;49.27;99288.21;103676;1277;137769;-53
2022/06/14 11:24:39;;;;;;;2.90;1.70;;;;;;;19.99;48.25;99287.71;103710;1275;23003;-53
2022/06/14 11:27:21;;;;;;;2.80;1.80;;;;;;;19.89;48.26;99288.14;104023;1275;138895;-57
2022/06/14 11:30:20;;;;;;;2.00;1.40;;;;;;;19.81;48.40;99281.44;103829;1274;25252;-57
2022/06/14 11:33:12;;;;;;;5.80;1.70;;;;;;;19.87;49.31;99280.46;103818;1274;137722;-57
2022/06/14 11:36:17;;;;;;;1.90;1.70;;;;;;;19.97;49.34;99279.33;103838;1275;23310;-57
2022/06/14 11:38:54;;;;;;;4.80;2.10;;;;;;;20.11;48.53;99280.22;103766;1275;138246;-57
2022/06/14 11:41:22;;;;;;;3.60;1.60;;;;;;;20.13;48.61;99280.23;103944;1277;24910;-56
2022/06/14 11:44:08;;;;;;;1.80;1.60;;;;;;;20.15;48.64;99282.89;103879;1274;139081;-56
2022/06/14 11:46:58;;;;;;;3.00;1.70;;;;;;;20.13;48.44;99287.16;103927;1275;22649;-56
2022/06/14 11:50:03;;;;;;;2.00;1.60;;;;;;;20.00;47.41;99293.38;103908;1274;25188;-56
2022/06/14 11:52:58;;;;;;;3.90;1.90;;;;;;;19.83;48.09;99284.52;103856;1274;23151;-56
2022/06/14 11:55:25;;;;;;;2.20;1.70;;;;;;;19.82;47.91;99281.91;104058;1274;22584;-53
2022/06/14 11:57:54;;;;;;;2.50;1.90;;;;;;;19.82;46.75;99277.15;103881;1274;138969;-53
2022/06/14 12:00:30;;;;;;;4.30;2.20;;;;;;;19.92;46.60;99276.95;104052;1274;22591;-51
2022/06/14 12:03:36;;;;;;;3.90;2.10;;;;;;;20.04;46.11;99271.28;103944;1274;137266;-53
2022/06/14 12:06:51;;;;;;;5.40;1.90;;;;;;;20.23;44.56;99275.98;103965;1274;22631;-53
2022/06/14 12:09:26;;;;;;;6.10;1.80;;;;;;;20.33;44.67;99280.16;103031;1284;137739;-54
2022/06/14 12:12:03;;;;;;;3.00;1.90;;;;;;;20.42;45.18;99270.05;103245;1284;25720;-53
2022/06/14 12:14:49;;;;;;;2.90;2.10;;;;;;;20.57;45.17;99280.89;103290;1283;139006;-54
2022/06/14 12:17:39;;;;;;;2.80;1.70;;;;;;;20.69;44.77;99275.89;103231;1282;25217;-50
2022/06/14 12:20:13;;;;;;;3.30;1.80;;;;;;;20.83;43.52;99276.08;103332;1281;137767;-54
2022/06/14 12:22:49;;;;;;;5.50;2.00;;;;;;;20.91;42.95;99265.33;103344;1281;27252;-54
2022/06/14 12:28:12;;;;;;;8.80;2.10;;;;;;;21.17;43.27;99273.69;103140;1286;152570;-54
2022/06/14 12:30:45;;;;;;;3.90;2.00;;;;;;;21.23;43.49;99277.83;103288;1282;22608;-52